createdAt,value
2018-09-27T00:01:43.927Z,6.50
2018-09-27T00:04:11.625Z,6.50
2018-09-27T00:06:39.221Z,6.40
2018-09-27T00:09:07.396Z,6.40
2018-09-27T00:11:34.999Z,6.30
2018-09-27T00:14:02.571Z,6.30
2018-09-27T00:16:30.183Z,6.30
2018-09-27T00:18:57.796Z,6.40
2018-09-27T00:21:25.441Z,6.40
2018-09-27T00:23:53.027Z,6.40
2018-09-27T00:26:20.637Z,6.40
2018-09-27T00:28:48.216Z,6.30
2018-09-27T00:31:15.829Z,6.20
2018-09-27T00:33:43.420Z,6.10
2018-09-27T00:36:10.984Z,6.10
2018-09-27T00:38:38.623Z,6.10
2018-09-27T00:41:06.205Z,6.10
2018-09-27T00:43:33.808Z,6.10
2018-09-27T00:46:01.427Z,6.10
2018-09-27T00:48:29.009Z,6.10
2018-09-27T00:50:56.564Z,6.10
2018-09-27T00:53:24.131Z,6.00
2018-09-27T00:55:51.725Z,5.90
2018-09-27T00:58:19.288Z,5.80
2018-09-27T01:00:46.920Z,5.80
2018-09-27T01:03:14.487Z,5.80
2018-09-27T01:05:42.151Z,5.80
2018-09-27T01:08:09.840Z,5.70
2018-09-27T01:10:37.668Z,5.80
2018-09-27T01:13:05.375Z,5.90
2018-09-27T01:15:32.980Z,5.80
2018-09-27T01:18:00.572Z,5.70
2018-09-27T01:20:28.141Z,5.70
2018-09-27T01:22:55.717Z,5.70
2018-09-27T01:25:23.287Z,5.70
2018-09-27T01:27:50.897Z,5.70
2018-09-27T01:30:18.476Z,5.60
2018-09-27T01:32:46.093Z,5.50
2018-09-27T01:35:13.788Z,5.50
2018-09-27T01:37:41.355Z,5.50
2018-09-27T01:40:08.963Z,5.40
2018-09-27T01:42:36.652Z,5.50
2018-09-27T01:45:04.597Z,5.40
2018-09-27T01:47:32.226Z,5.40
2018-09-27T01:49:59.833Z,5.40
2018-09-27T01:52:27.449Z,5.30
2018-09-27T01:54:55.448Z,5.20
2018-09-27T01:57:23.084Z,5.20
2018-09-27T01:59:50.696Z,5.20
2018-09-27T02:02:18.276Z,5.30
2018-09-27T02:04:46.200Z,5.20
2018-09-27T02:07:13.816Z,5.10
2018-09-27T02:09:41.432Z,5.10
2018-09-27T02:12:09.012Z,5.10
2018-09-27T02:14:36.662Z,5.10
2018-09-27T02:17:04.274Z,5.00
2018-09-27T02:19:31.830Z,5.00
2018-09-27T02:21:59.402Z,4.90
2018-09-27T02:24:27.008Z,4.90
2018-09-27T02:26:54.592Z,4.90
2018-09-27T02:29:22.190Z,5.00
2018-09-27T02:31:49.752Z,4.90
2018-09-27T02:34:17.356Z,4.80
2018-09-27T02:36:44.975Z,4.70
2018-09-27T02:39:12.564Z,4.70
2018-09-27T02:41:40.316Z,4.80
2018-09-27T02:44:07.924Z,4.80
2018-09-27T02:46:35.509Z,4.80
2018-09-27T02:49:03.128Z,4.70
2018-09-27T02:51:30.735Z,4.80
2018-09-27T02:53:58.341Z,4.80
2018-09-27T02:56:26.087Z,4.80
2018-09-27T02:58:53.666Z,4.80
2018-09-27T03:01:21.581Z,4.70
2018-09-27T03:03:49.140Z,4.60
2018-09-27T03:06:16.710Z,4.60
2018-09-27T03:08:44.686Z,4.70
2018-09-27T03:11:12.224Z,4.70
2018-09-27T03:13:39.797Z,4.70
2018-09-27T03:16:07.384Z,4.70
2018-09-27T03:18:34.993Z,4.70
2018-09-27T03:21:02.650Z,4.60
2018-09-27T03:23:30.243Z,4.50
2018-09-27T03:25:57.812Z,4.60
2018-09-27T03:28:25.927Z,4.60
2018-09-27T03:30:53.535Z,4.50
2018-09-27T03:35:54.977Z,4.40
2018-09-27T03:38:22.571Z,4.40
2018-09-27T03:40:50.197Z,4.40
2018-09-27T03:43:17.790Z,4.40
2018-09-27T03:45:45.383Z,4.40
2018-09-27T03:48:12.963Z,4.40
2018-09-27T03:50:41.087Z,4.40
2018-09-27T03:53:08.701Z,4.40
2018-09-27T03:55:36.253Z,4.40
2018-09-27T03:58:03.895Z,4.40
2018-09-27T04:00:31.477Z,4.30
2018-09-27T04:02:59.092Z,4.20
2018-09-27T04:05:26.725Z,4.20
2018-09-27T04:07:54.409Z,4.20
2018-09-27T04:10:22.020Z,4.10
2018-09-27T04:12:49.610Z,4.10
2018-09-27T04:15:17.265Z,4.10
2018-09-27T04:17:44.861Z,4.10
2018-09-27T04:20:12.764Z,4.00
2018-09-27T04:22:40.367Z,3.90
2018-09-27T04:25:08.028Z,3.90
2018-09-27T04:27:35.642Z,4.00
2018-09-27T04:30:03.480Z,4.00
2018-09-27T04:32:31.143Z,4.00
2018-09-27T04:34:58.776Z,4.10
2018-09-27T04:37:26.330Z,4.00
2018-09-27T04:39:53.969Z,3.90
2018-09-27T04:42:21.561Z,4.00
2018-09-27T04:44:49.261Z,4.10
2018-09-27T04:47:16.865Z,4.10
2018-09-27T04:49:44.440Z,4.00
2018-09-27T04:52:12.078Z,4.00
2018-09-27T04:54:39.717Z,3.90
2018-09-27T04:57:07.456Z,4.00
2018-09-27T04:59:35.051Z,4.00
2018-09-27T05:02:02.726Z,4.10
2018-09-27T05:04:30.395Z,4.20
2018-09-27T05:06:58.000Z,4.20
2018-09-27T05:09:25.605Z,4.10
2018-09-27T05:11:53.252Z,4.10
2018-09-27T05:14:20.885Z,4.10
2018-09-27T05:16:48.559Z,4.10
2018-09-27T05:19:16.210Z,4.10
2018-09-27T05:21:43.907Z,4.00
2018-09-27T05:24:11.504Z,4.00
2018-09-27T05:26:39.155Z,4.10
2018-09-27T05:29:06.805Z,4.10
2018-09-27T05:31:34.473Z,4.10
2018-09-27T05:34:02.131Z,4.20
2018-09-27T05:36:29.812Z,4.20
2018-09-27T05:38:57.484Z,4.20
2018-09-27T05:41:25.205Z,4.20
2018-09-27T05:43:52.849Z,4.10
2018-09-27T05:46:20.550Z,4.20
2018-09-27T05:48:48.235Z,4.20
2018-09-27T05:51:15.888Z,4.20
2018-09-27T05:53:43.551Z,4.10
2018-09-27T05:56:11.248Z,4.00
2018-09-27T05:58:38.956Z,4.10
2018-09-27T06:01:06.718Z,4.10
2018-09-27T06:03:34.360Z,4.20
2018-09-27T06:06:02.001Z,4.20
2018-09-27T06:08:29.716Z,4.30
2018-09-27T06:10:57.380Z,4.30
2018-09-27T06:13:25.041Z,4.30
2018-09-27T06:15:52.668Z,4.40
2018-09-27T06:18:20.300Z,4.40
2018-09-27T06:20:47.924Z,4.40
2018-09-27T06:23:15.670Z,4.50
2018-09-27T06:25:43.512Z,4.50
2018-09-27T06:28:11.148Z,4.60
2018-09-27T06:30:38.791Z,4.70
2018-09-27T06:33:06.449Z,4.70
2018-09-27T06:35:34.199Z,4.70
2018-09-27T06:38:01.824Z,4.70
2018-09-27T06:40:29.461Z,4.80
2018-09-27T06:42:57.149Z,4.90
2018-09-27T06:45:24.754Z,4.90
2018-09-27T06:47:52.670Z,5.00
2018-09-27T06:50:20.312Z,5.10
2018-09-27T06:52:48.184Z,5.20
2018-09-27T06:55:15.987Z,5.20
2018-09-27T06:57:43.549Z,5.30
2018-09-27T07:00:11.204Z,5.30
2018-09-27T07:02:38.909Z,5.40
2018-09-27T07:05:06.668Z,5.60
2018-09-27T07:07:34.382Z,5.70
2018-09-27T07:10:02.053Z,5.80
2018-09-27T07:12:29.865Z,5.90
2018-09-27T07:14:57.463Z,6.00
2018-09-27T07:17:25.087Z,6.10
2018-09-27T07:19:52.712Z,6.20
2018-09-27T07:22:20.363Z,6.30
2018-09-27T07:24:48.007Z,6.30
2018-09-27T07:27:15.672Z,6.40
2018-09-27T07:29:43.303Z,6.60
2018-09-27T07:32:10.967Z,6.70
2018-09-27T07:34:38.620Z,6.80
2018-09-27T07:37:06.367Z,6.90
2018-09-27T07:39:34.101Z,7.00
2018-09-27T07:42:01.707Z,7.10
2018-09-27T07:44:29.427Z,7.20
2018-09-27T07:46:57.032Z,7.30
2018-09-27T07:49:24.722Z,7.50
2018-09-27T07:51:52.329Z,7.60
2018-09-27T07:54:19.964Z,7.70
2018-09-27T07:56:48.108Z,7.80
2018-09-27T07:59:15.784Z,8.00
2018-09-27T08:01:43.441Z,8.10
2018-09-27T08:04:11.152Z,8.20
2018-09-27T08:06:38.753Z,8.20
2018-09-27T08:09:07.407Z,8.30
2018-09-27T08:11:35.395Z,8.40
2018-09-27T08:14:02.975Z,8.60
2018-09-27T08:16:30.671Z,8.70
2018-09-27T08:18:58.320Z,8.80
2018-09-27T08:21:25.980Z,8.90
2018-09-27T08:23:53.646Z,9.10
2018-09-27T08:26:21.301Z,9.20
2018-09-27T08:28:48.932Z,9.30
2018-09-27T08:31:16.670Z,9.40
2018-09-27T08:33:44.311Z,9.70
2018-09-27T08:36:11.960Z,9.90
2018-09-27T08:38:39.635Z,10.00
2018-09-27T08:41:07.261Z,10.30
2018-09-27T08:43:34.893Z,10.50
2018-09-27T08:46:02.550Z,10.80
2018-09-27T08:48:30.245Z,10.90
2018-09-27T08:50:58.241Z,11.00
2018-09-27T08:53:25.901Z,11.30
2018-09-27T08:55:53.572Z,11.70
2018-09-27T08:58:21.534Z,11.90
2018-09-27T09:00:49.159Z,12.10
2018-09-27T09:03:16.855Z,12.20
2018-09-27T09:05:44.620Z,12.30
2018-09-27T09:08:12.728Z,12.50
2018-09-27T09:10:40.360Z,12.60
2018-09-27T09:13:08.278Z,12.90
2018-09-27T09:15:35.899Z,13.00
2018-09-27T09:18:03.577Z,13.20
2018-09-27T09:20:31.264Z,13.50
2018-09-27T09:22:58.895Z,13.60
2018-09-27T09:25:26.728Z,13.70
2018-09-27T09:27:54.596Z,13.90
2018-09-27T09:30:22.240Z,14.10
2018-09-27T09:32:49.862Z,14.30
2018-09-27T09:35:17.684Z,14.60
2018-09-27T09:37:45.391Z,14.80
2018-09-27T09:40:13.057Z,15.10
2018-09-27T09:42:40.679Z,15.40
2018-09-27T09:45:08.381Z,15.50
2018-09-27T09:47:36.007Z,15.60
2018-09-27T09:50:03.983Z,15.80
2018-09-27T09:52:31.610Z,16.00
2018-09-27T09:54:59.347Z,16.30
2018-09-27T09:57:27.016Z,16.40
2018-09-27T09:59:54.665Z,16.70
2018-09-27T10:02:22.364Z,16.90
2018-09-27T10:04:50.298Z,17.20
2018-09-27T10:07:17.941Z,17.40
2018-09-27T10:09:45.855Z,17.60
2018-09-27T10:12:13.480Z,17.80
2018-09-27T10:14:41.124Z,18.00
2018-09-27T10:17:08.783Z,18.20
2018-09-27T10:19:36.516Z,18.30
2018-09-27T10:22:04.214Z,18.50
2018-09-27T10:24:32.191Z,18.60
2018-09-27T10:26:59.820Z,18.80
2018-09-27T10:29:27.473Z,19.00
2018-09-27T10:31:55.099Z,19.20
2018-09-27T10:34:23.224Z,19.40
2018-09-27T10:36:50.835Z,19.50
2018-09-27T10:39:19.956Z,19.70
2018-09-27T10:41:47.768Z,19.80
2018-09-27T10:44:15.412Z,20.00
2018-09-27T10:46:42.972Z,20.30
2018-09-27T10:49:10.567Z,20.40
2018-09-27T10:51:38.160Z,20.40
2018-09-27T10:54:05.880Z,20.60
2018-09-27T10:56:33.484Z,20.50
2018-09-27T10:59:01.120Z,20.60
2018-09-27T11:01:28.700Z,20.80
2018-09-27T11:03:56.312Z,21.00
2018-09-27T11:06:24.153Z,21.10
2018-09-27T11:08:51.715Z,21.30
2018-09-27T11:11:19.319Z,21.40
2018-09-27T11:13:46.909Z,21.40
2018-09-27T11:16:14.491Z,21.50
2018-09-27T11:18:42.100Z,21.60
2018-09-27T11:21:09.680Z,21.70
2018-09-27T11:23:37.256Z,21.80
2018-09-27T11:26:04.876Z,21.90
2018-09-27T11:28:38.173Z,21.80
2018-09-27T11:31:11.420Z,21.70
2018-09-27T11:33:38.984Z,21.80
2018-09-27T11:36:06.692Z,22.00
2018-09-27T11:38:35.548Z,22.10
2018-09-27T11:41:03.148Z,22.10
2018-09-27T11:43:30.926Z,22.20
2018-09-27T11:45:58.554Z,22.10
2018-09-27T11:48:26.157Z,22.10
2018-09-27T11:50:53.738Z,22.10
2018-09-27T11:53:21.320Z,22.10
2018-09-27T11:55:49.193Z,22.10
2018-09-27T11:58:16.952Z,22.30
2018-09-27T12:00:44.885Z,22.30
2018-09-27T12:03:12.440Z,22.40
2018-09-27T12:05:40.005Z,22.40
2018-09-27T12:08:07.667Z,22.40
2018-09-27T12:10:35.243Z,22.40
2018-09-27T12:13:03.033Z,22.40
2018-09-27T12:15:30.718Z,22.40
2018-09-27T12:17:58.616Z,22.50
2018-09-27T12:20:26.188Z,22.40
2018-09-27T12:22:53.840Z,22.40
2018-09-27T12:25:21.445Z,22.40
2018-09-27T12:27:49.020Z,22.40
2018-09-27T12:30:16.615Z,22.30
2018-09-27T12:32:44.157Z,22.30
2018-09-27T12:35:11.713Z,22.30
2018-09-27T12:37:39.335Z,22.30
2018-09-27T12:40:06.953Z,22.30
2018-09-27T12:42:34.686Z,22.30
2018-09-27T12:45:02.323Z,22.30
2018-09-27T12:47:29.836Z,22.30
2018-09-27T12:49:57.467Z,22.30
2018-09-27T12:52:25.296Z,22.30
2018-09-27T12:54:52.810Z,22.30
2018-09-27T12:57:20.387Z,22.30
2018-09-27T12:59:48.016Z,22.30
2018-09-27T13:02:15.758Z,22.40
2018-09-27T13:04:43.298Z,22.40
2018-09-27T13:07:10.999Z,22.40
2018-09-27T13:09:38.675Z,22.40
2018-09-27T13:12:06.248Z,22.50
2018-09-27T13:14:33.895Z,22.50
2018-09-27T13:17:01.528Z,22.60
2018-09-27T13:19:29.191Z,22.70
2018-09-27T13:21:56.744Z,22.80
2018-09-27T13:24:24.501Z,22.80
2018-09-27T13:26:52.101Z,22.80
2018-09-27T13:29:19.875Z,22.80
2018-09-27T13:31:47.491Z,22.90
2018-09-27T13:34:15.040Z,22.80
2018-09-27T13:36:42.651Z,22.80
2018-09-27T13:39:10.593Z,22.70
2018-09-27T13:41:39.361Z,22.70
2018-09-27T13:44:07.113Z,22.70
2018-09-27T13:46:35.493Z,22.70
2018-09-27T13:49:03.143Z,22.70
2018-09-27T13:51:30.727Z,22.70
2018-09-27T13:53:58.363Z,22.70
2018-09-27T13:56:25.941Z,22.80
2018-09-27T13:58:53.544Z,22.80
2018-09-27T14:01:21.285Z,22.90
2018-09-27T14:03:48.896Z,22.90
2018-09-27T14:06:16.466Z,22.90
2018-09-27T14:08:44.061Z,22.80
2018-09-27T14:11:11.688Z,22.80
2018-09-27T14:13:39.317Z,22.80
2018-09-27T14:16:06.958Z,22.80
2018-09-27T14:18:34.581Z,22.90
2018-09-27T14:21:02.176Z,22.80
2018-09-27T14:23:29.866Z,22.80
2018-09-27T14:25:57.471Z,22.80
2018-09-27T14:28:25.093Z,22.80
2018-09-27T14:30:52.992Z,22.80
2018-09-27T14:33:20.644Z,22.70
2018-09-27T14:35:48.254Z,22.80
2018-09-27T14:38:15.885Z,22.80
2018-09-27T14:40:43.532Z,22.70
2018-09-27T14:43:11.092Z,22.70
2018-09-27T14:45:38.717Z,22.60
2018-09-27T14:48:06.339Z,22.70
2018-09-27T14:50:33.936Z,22.60
2018-09-27T14:53:01.505Z,22.60
2018-09-27T14:55:29.136Z,22.60
2018-09-27T14:57:56.732Z,22.60
2018-09-27T15:00:24.305Z,22.60
2018-09-27T15:02:51.926Z,22.50
2018-09-27T15:05:19.503Z,22.50
2018-09-27T15:07:47.114Z,22.40
2018-09-27T15:10:14.765Z,22.40
2018-09-27T15:12:42.490Z,22.40
2018-09-27T15:15:10.038Z,22.30
2018-09-27T15:17:38.114Z,22.40
2018-09-27T15:20:05.889Z,22.40
2018-09-27T15:22:33.607Z,22.30
2018-09-27T15:25:01.165Z,22.30
2018-09-27T15:27:28.762Z,22.20
2018-09-27T15:29:56.339Z,22.20
2018-09-27T15:32:24.173Z,22.10
2018-09-27T15:34:51.892Z,22.20
2018-09-27T15:37:19.449Z,22.10
2018-09-27T15:39:47.042Z,22.10
2018-09-27T15:42:14.625Z,22.00
2018-09-27T15:44:42.191Z,22.00
2018-09-27T15:47:09.811Z,22.10
2018-09-27T15:49:37.428Z,22.10
2018-09-27T15:52:05.149Z,22.10
2018-09-27T15:54:32.745Z,22.00
2018-09-27T15:57:00.377Z,21.90
2018-09-27T15:59:27.988Z,21.90
2018-09-27T16:01:55.779Z,21.90
2018-09-27T16:04:23.408Z,21.80
2018-09-27T16:06:51.010Z,21.80
2018-09-27T16:09:18.623Z,21.70
2018-09-27T16:11:46.229Z,21.70
2018-09-27T16:14:13.810Z,21.70
2018-09-27T16:16:41.481Z,21.60
2018-09-27T16:19:09.212Z,21.60
2018-09-27T16:21:36.829Z,21.60
2018-09-27T16:24:04.439Z,21.50
2018-09-27T16:26:32.085Z,21.50
2018-09-27T16:29:00.017Z,21.50
2018-09-27T16:31:27.584Z,21.40
2018-09-27T16:33:55.177Z,21.40
2018-09-27T16:36:22.749Z,21.30
2018-09-27T16:38:50.369Z,21.20
2018-09-27T16:41:17.984Z,21.20
2018-09-27T16:43:45.664Z,21.10
2018-09-27T16:46:13.263Z,21.00
2018-09-27T16:48:40.880Z,20.80
2018-09-27T16:51:08.506Z,20.70
2018-09-27T16:53:36.168Z,20.60
2018-09-27T16:56:03.782Z,20.50
2018-09-27T16:58:31.490Z,20.40
2018-09-27T17:00:59.056Z,20.30
2018-09-27T17:03:26.618Z,20.20
2018-09-27T17:05:54.218Z,20.00
2018-09-27T17:08:21.812Z,19.90
2018-09-27T17:10:49.376Z,19.70
2018-09-27T17:13:16.991Z,19.50
2018-09-27T17:15:44.579Z,19.40
2018-09-27T17:18:12.469Z,19.20
2018-09-27T17:20:40.107Z,19.10
2018-09-27T17:23:07.665Z,19.00
2018-09-27T17:25:35.293Z,18.90
2018-09-27T17:28:02.908Z,18.70
2018-09-27T17:30:30.468Z,18.60
2018-09-27T17:32:58.098Z,18.40
2018-09-27T17:35:25.682Z,18.30
2018-09-27T17:37:53.278Z,18.10
2018-09-27T17:40:21.218Z,18.10
2018-09-27T17:42:48.886Z,18.00
2018-09-27T17:45:16.835Z,17.90
2018-09-27T17:47:44.444Z,17.90
2018-09-27T17:50:12.135Z,17.80
2018-09-27T17:52:39.786Z,17.70
2018-09-27T17:55:07.899Z,17.60
2018-09-27T17:57:36.544Z,17.40
2018-09-27T18:00:04.314Z,17.40
2018-09-27T18:02:31.958Z,17.30
2018-09-27T18:04:59.549Z,17.20
2018-09-27T18:07:27.203Z,17.20
2018-09-27T18:09:54.820Z,17.10
2018-09-27T18:12:22.451Z,17.00
2018-09-27T18:14:50.097Z,16.90
2018-09-27T18:17:17.878Z,16.90
2018-09-27T18:19:45.507Z,16.70
2018-09-27T18:22:13.067Z,16.50
2018-09-27T18:24:40.675Z,16.40
2018-09-27T18:27:08.283Z,16.40
2018-09-27T18:29:35.926Z,16.30
2018-09-27T18:32:03.520Z,16.20
2018-09-27T18:34:31.202Z,16.10
2018-09-27T18:36:58.792Z,16.10
2018-09-27T18:39:26.430Z,16.10
2018-09-27T18:41:54.026Z,16.00
2018-09-27T18:44:21.611Z,16.00
2018-09-27T18:46:49.206Z,15.90
2018-09-27T18:49:16.872Z,15.80
2018-09-27T18:51:44.477Z,15.70
2018-09-27T18:54:12.048Z,15.60
2018-09-27T18:56:39.609Z,15.60
2018-09-27T18:59:08.300Z,15.50
2018-09-27T19:01:35.854Z,15.40
2018-09-27T19:04:03.488Z,15.40
2018-09-27T19:06:31.075Z,15.30
2018-09-27T19:08:58.799Z,15.30
2018-09-27T19:11:26.398Z,15.20
2018-09-27T19:13:54.294Z,15.10
2018-09-27T19:16:21.885Z,15.00
2018-09-27T19:18:49.456Z,14.90
2018-09-27T19:21:17.030Z,14.90
2018-09-27T19:23:44.663Z,14.90
2018-09-27T19:26:12.242Z,14.90
2018-09-27T19:28:39.848Z,14.80
2018-09-27T19:31:07.472Z,14.70
2018-09-27T19:33:35.067Z,14.60
2018-09-27T19:36:02.673Z,14.40
2018-09-27T19:38:30.338Z,14.40
2018-09-27T19:40:58.172Z,14.40
2018-09-27T19:43:25.813Z,14.30
2018-09-27T19:45:53.412Z,14.20
2018-09-27T19:48:21.033Z,14.10
2018-09-27T19:50:48.636Z,14.00
2018-09-27T19:53:16.232Z,13.80
2018-09-27T19:55:43.844Z,13.70
2018-09-27T19:58:11.510Z,13.60
2018-09-27T20:00:39.113Z,13.60
2018-09-27T20:03:06.696Z,13.60
2018-09-27T20:05:34.287Z,13.60
2018-09-27T20:08:01.872Z,13.60
2018-09-27T20:10:29.563Z,13.50
2018-09-27T20:12:57.166Z,13.40
2018-09-27T20:15:24.760Z,13.30
2018-09-27T20:17:52.899Z,13.20
2018-09-27T20:20:20.503Z,13.10
2018-09-27T20:22:48.348Z,13.00
2018-09-27T20:25:15.960Z,13.00
2018-09-27T20:27:43.514Z,12.90
2018-09-27T20:30:11.118Z,12.90
2018-09-27T20:32:38.661Z,12.80
2018-09-27T20:35:06.275Z,12.80
2018-09-27T20:37:33.864Z,12.80
2018-09-27T20:40:01.490Z,12.70
2018-09-27T20:42:29.336Z,12.70
2018-09-27T20:44:56.993Z,12.60
2018-09-27T20:47:25.060Z,12.50
2018-09-27T20:49:52.689Z,12.50
2018-09-27T20:52:20.322Z,12.50
2018-09-27T20:54:47.960Z,12.50
2018-09-27T20:57:18.842Z,12.50
2018-09-27T20:59:46.493Z,12.40
2018-09-27T21:02:14.129Z,12.30
2018-09-27T21:04:41.749Z,12.20
2018-09-27T21:07:09.828Z,12.10
2018-09-27T21:09:37.410Z,12.10
2018-09-27T21:12:05.135Z,12.10
2018-09-27T21:14:32.825Z,12.10
2018-09-27T21:17:00.698Z,12.10
2018-09-27T21:19:28.365Z,12.00
2018-09-27T21:21:56.021Z,11.90
2018-09-27T21:24:23.628Z,11.70
2018-09-27T21:26:51.268Z,11.60
2018-09-27T21:29:18.853Z,11.50
2018-09-27T21:31:46.500Z,11.60
2018-09-27T21:34:14.144Z,11.50
2018-09-27T21:36:41.821Z,11.60
2018-09-27T21:39:09.449Z,11.50
2018-09-27T21:41:37.116Z,11.40
2018-09-27T21:44:04.813Z,11.40
2018-09-27T21:46:32.457Z,11.30
2018-09-27T21:49:00.090Z,11.20
2018-09-27T21:51:27.713Z,11.20
2018-09-27T21:53:55.288Z,11.10
2018-09-27T21:56:23.120Z,11.10
2018-09-27T21:58:50.777Z,11.10
2018-09-27T22:01:18.652Z,11.00
2018-09-27T22:03:46.351Z,11.00
2018-09-27T22:06:13.949Z,11.00
2018-09-27T22:08:41.657Z,11.00
2018-09-27T22:11:09.384Z,10.90
2018-09-27T22:13:37.044Z,10.90
2018-09-27T22:16:04.716Z,10.80
2018-09-27T22:18:32.346Z,10.80
2018-09-27T22:20:59.990Z,10.70
2018-09-27T22:23:27.805Z,10.70
2018-09-27T22:25:55.644Z,10.70
2018-09-27T22:28:23.267Z,10.70
2018-09-27T22:30:50.921Z,10.70
2018-09-27T22:33:18.553Z,10.60
2018-09-27T22:35:46.193Z,10.50
2018-09-27T22:38:13.795Z,10.40
2018-09-27T22:40:41.653Z,10.30
2018-09-27T22:43:09.340Z,10.30
2018-09-27T22:45:36.942Z,10.20
2018-09-27T22:48:04.609Z,10.20
2018-09-27T22:50:32.221Z,10.10
2018-09-27T22:52:59.856Z,10.10
2018-09-27T22:55:27.519Z,10.10
2018-09-27T22:57:55.876Z,10.10
2018-09-27T23:00:23.488Z,10.00
2018-09-27T23:02:51.441Z,10.00
2018-09-27T23:05:19.107Z,10.00
2018-09-27T23:07:46.765Z,9.90
2018-09-27T23:10:14.406Z,9.90
2018-09-27T23:12:42.049Z,9.90
2018-09-27T23:15:09.638Z,9.80
2018-09-27T23:17:37.277Z,9.70
2018-09-27T23:20:06.093Z,9.60
2018-09-27T23:22:33.716Z,9.60
2018-09-27T23:25:01.364Z,9.60
2018-09-27T23:27:29.012Z,9.70
2018-09-27T23:29:56.632Z,9.70
2018-09-27T23:32:24.601Z,9.70
2018-09-27T23:34:52.190Z,9.60
2018-09-27T23:37:19.812Z,9.60
2018-09-27T23:39:47.423Z,9.50
2018-09-27T23:42:15.160Z,9.50
2018-09-27T23:44:42.793Z,9.50
2018-09-27T23:47:10.503Z,9.40
2018-09-27T23:49:38.152Z,9.40
2018-09-27T23:52:05.852Z,9.30
2018-09-27T23:54:33.630Z,9.30
2018-09-27T23:57:01.233Z,9.20
2018-09-27T23:59:28.907Z,9.20
